sensor_id;sensor_type;location;lat;lon;timestamp;pressure;altitude;pressure_sealevel;temperature;humidity
53647;BME280;39550;52.230;5.194;2023-05-03T00:01:57;102881.84;;;10.96;60.11
53647;BME280;39550;52.230;5.194;2023-05-03T00:04:22;102880.03;;;10.94;60.15
53647;BME280;39550;52.230;5.194;2023-05-03T00:06:49;102890.53;;;10.98;59.96
53647;BME280;39550;52.230;5.194;2023-05-03T00:09:14;102881.78;;;10.95;60.07
53647;BME280;39550;52.230;5.194;2023-05-03T00:11:40;102874.75;;;10.90;59.80
53647;BME280;39550;52.230;5.194;2023-05-03T00:14:05;102862.44;;;10.83;59.95
53647;BME280;39550;52.230;5.194;2023-05-03T00:16:30;102854.44;;;10.77;60.25
53647;BME280;39550;52.230;5.194;2023-05-03T00:18:56;102880.44;;;10.82;60.46
53647;BME280;39550;52.230;5.194;2023-05-03T00:21:22;102870.13;;;10.82;60.07
53647;BME280;39550;52.230;5.194;2023-05-03T00:23:47;102868.28;;;10.79;60.26
53647;BME280;39550;52.230;5.194;2023-05-03T00:26:12;102894.47;;;10.88;60.10
53647;BME280;39550;52.230;5.194;2023-05-03T00:28:39;102896.13;;;10.88;60.08
53647;BME280;39550;52.230;5.194;2023-05-03T00:31:06;102890.94;;;10.86;60.39
53647;BME280;39550;52.230;5.194;2023-05-03T00:33:32;102864.53;;;10.71;60.17
53647;BME280;39550;52.230;5.194;2023-05-03T00:35:57;102875.97;;;10.78;60.13
53647;BME280;39550;52.230;5.194;2023-05-03T00:38:24;102800.38;;;10.35;59.93
53647;BME280;39550;52.230;5.194;2023-05-03T00:40:53;102852.09;;;10.61;60.66
53647;BME280;39550;52.230;5.194;2023-05-03T00:43:18;102846.00;;;10.59;60.80
53647;BME280;39550;52.230;5.194;2023-05-03T00:45:44;102892.31;;;10.78;60.68
53647;BME280;39550;52.230;5.194;2023-05-03T00:48:11;102881.78;;;10.72;60.15
53647;BME280;39550;52.230;5.194;2023-05-03T00:50:37;102879.19;;;10.72;60.27
53647;BME280;39550;52.230;5.194;2023-05-03T00:53:03;102861.56;;;10.62;60.74
53647;BME280;39550;52.230;5.194;2023-05-03T00:55:29;102857.09;;;10.57;60.33
53647;BME280;39550;52.230;5.194;2023-05-03T00:57:57;102872.84;;;10.64;60.42
53647;BME280;39550;52.230;5.194;2023-05-03T01:00:23;102785.75;;;10.14;60.71
53647;BME280;39550;52.230;5.194;2023-05-03T01:02:49;102866.63;;;10.59;60.49
53647;BME280;39550;52.230;5.194;2023-05-03T01:05:15;102879.69;;;10.63;60.47
53647;BME280;39550;52.230;5.194;2023-05-03T01:18:14;102870.84;;;10.56;60.77
53647;BME280;39550;52.230;5.194;2023-05-03T01:20:43;102865.41;;;10.50;61.11
53647;BME280;39550;52.230;5.194;2023-05-03T01:23:17;102863.66;;;10.49;60.35
53647;BME280;39550;52.230;5.194;2023-05-03T01:25:46;102847.69;;;10.37;61.03
53647;BME280;39550;52.230;5.194;2023-05-03T01:28:11;102873.16;;;10.50;60.82
53647;BME280;39550;52.230;5.194;2023-05-03T01:30:37;102883.84;;;10.60;61.20
53647;BME280;39550;52.230;5.194;2023-05-03T01:35:56;102879.38;;;10.55;60.84
53647;BME280;39550;52.230;5.194;2023-05-03T01:38:26;102840.50;;;10.30;61.06
53647;BME280;39550;52.230;5.194;2023-05-03T01:40:56;102891.31;;;10.53;60.71
53647;BME280;39550;52.230;5.194;2023-05-03T01:43:24;102861.66;;;10.42;61.04
53647;BME280;39550;52.230;5.194;2023-05-03T01:45:49;102870.56;;;10.50;60.63
53647;BME280;39550;52.230;5.194;2023-05-03T01:48:16;102800.69;;;10.02;61.04
53647;BME280;39550;52.230;5.194;2023-05-03T01:50:42;102879.00;;;10.46;60.88
53647;BME280;39550;52.230;5.194;2023-05-03T01:53:08;102854.34;;;10.32;61.21
53647;BME280;39550;52.230;5.194;2023-05-03T01:55:33;102811.06;;;10.03;60.72
53647;BME280;39550;52.230;5.194;2023-05-03T01:57:59;102858.59;;;10.31;60.94
53647;BME280;39550;52.230;5.194;2023-05-03T02:00:24;102822.78;;;10.16;60.61
53647;BME280;39550;52.230;5.194;2023-05-03T02:02:50;102868.31;;;10.37;61.28
53647;BME280;39550;52.230;5.194;2023-05-03T02:05:15;102843.53;;;10.19;60.58
53647;BME280;39550;52.230;5.194;2023-05-03T02:07:41;102856.09;;;10.33;60.78
53647;BME280;39550;52.230;5.194;2023-05-03T02:10:07;102839.16;;;10.18;60.87
53647;BME280;39550;52.230;5.194;2023-05-03T02:12:32;102863.16;;;10.37;61.01
53647;BME280;39550;52.230;5.194;2023-05-03T02:14:57;102769.97;;;9.85;61.27
53647;BME280;39550;52.230;5.194;2023-05-03T02:17:23;102844.03;;;10.32;60.81
53647;BME280;39550;52.230;5.194;2023-05-03T02:19:51;102824.78;;;10.23;61.06
53647;BME280;39550;52.230;5.194;2023-05-03T02:22:16;102817.75;;;10.19;61.10
53647;BME280;39550;52.230;5.194;2023-05-03T02:24:42;102840.44;;;10.28;61.35
53647;BME280;39550;52.230;5.194;2023-05-03T02:27:07;102772.53;;;9.85;60.31
53647;BME280;39550;52.230;5.194;2023-05-03T02:29:32;102799.31;;;10.10;60.00
53647;BME280;39550;52.230;5.194;2023-05-03T02:31:58;102828.28;;;10.26;60.92
53647;BME280;39550;52.230;5.194;2023-05-03T02:34:25;102822.28;;;10.25;60.89
53647;BME280;39550;52.230;5.194;2023-05-03T02:36:50;102795.66;;;10.05;60.93
53647;BME280;39550;52.230;5.194;2023-05-03T02:39:16;102723.81;;;9.69;60.99
53647;BME280;39550;52.230;5.194;2023-05-03T02:41:41;102809.75;;;10.13;60.14
53647;BME280;39550;52.230;5.194;2023-05-03T02:44:06;102811.53;;;10.14;60.31
53647;BME280;39550;52.230;5.194;2023-05-03T02:46:32;102800.75;;;10.03;60.82
53647;BME280;39550;52.230;5.194;2023-05-03T02:48:57;102835.84;;;10.21;60.39
53647;BME280;39550;52.230;5.194;2023-05-03T02:51:22;102813.84;;;10.08;60.78
53647;BME280;39550;52.230;5.194;2023-05-03T02:53:48;102793.47;;;9.93;60.90
53647;BME280;39550;52.230;5.194;2023-05-03T02:56:13;102799.50;;;9.94;60.42
53647;BME280;39550;52.230;5.194;2023-05-03T02:58:38;102841.34;;;10.09;60.34
53647;BME280;39550;52.230;5.194;2023-05-03T03:01:04;102843.00;;;10.07;60.07
53647;BME280;39550;52.230;5.194;2023-05-03T03:03:29;102841.22;;;10.06;60.60
53647;BME280;39550;52.230;5.194;2023-05-03T03:05:54;102859.59;;;10.14;60.87
53647;BME280;39550;52.230;5.194;2023-05-03T03:08:21;102832.31;;;9.98;60.81
53647;BME280;39550;52.230;5.194;2023-05-03T03:10:47;102841.13;;;10.03;60.85
53647;BME280;39550;52.230;5.194;2023-05-03T03:13:12;102858.47;;;10.07;60.73
53647;BME280;39550;52.230;5.194;2023-05-03T03:15:38;102855.88;;;10.07;60.90
53647;BME280;39550;52.230;5.194;2023-05-03T03:18:03;102843.63;;;10.01;60.60
53647;BME280;39550;52.230;5.194;2023-05-03T03:20:29;102802.13;;;9.74;60.59
53647;BME280;39550;52.230;5.194;2023-05-03T03:22:55;102848.78;;;10.01;60.24
53647;BME280;39550;52.230;5.194;2023-05-03T03:25:20;102849.66;;;10.02;61.08
53647;BME280;39550;52.230;5.194;2023-05-03T03:27:45;102860.75;;;10.01;60.71
53647;BME280;39550;52.230;5.194;2023-05-03T03:30:11;102853.88;;;10.00;60.97
53647;BME280;39550;52.230;5.194;2023-05-03T03:32:36;102781.56;;;9.54;60.67
53647;BME280;39550;52.230;5.194;2023-05-03T03:35:01;102857.31;;;10.00;60.67
53647;BME280;39550;52.230;5.194;2023-05-03T03:37:27;102810.53;;;9.70;60.51
53647;BME280;39550;52.230;5.194;2023-05-03T03:39:52;102852.66;;;9.92;60.85
53647;BME280;39550;52.230;5.194;2023-05-03T03:42:18;102840.34;;;9.84;60.90
53647;BME280;39550;52.230;5.194;2023-05-03T03:44:43;102827.13;;;9.77;60.31
53647;BME280;39550;52.230;5.194;2023-05-03T03:47:08;102862.13;;;9.93;60.86
53647;BME280;39550;52.230;5.194;2023-05-03T03:49:34;102857.81;;;9.92;60.79
53647;BME280;39550;52.230;5.194;2023-05-03T03:52:00;102862.06;;;9.91;60.40
53647;BME280;39550;52.230;5.194;2023-05-03T03:54:25;102855.00;;;9.87;60.93
53647;BME280;39550;52.230;5.194;2023-05-03T03:56:50;102840.91;;;9.79;60.28
53647;BME280;39550;52.230;5.194;2023-05-03T03:59:16;102798.75;;;9.56;60.08
53647;BME280;39550;52.230;5.194;2023-05-03T04:01:42;102865.47;;;9.90;60.83
53647;BME280;39550;52.230;5.194;2023-05-03T04:04:07;102794.69;;;9.41;60.51
53647;BME280;39550;52.230;5.194;2023-05-03T04:06:32;102866.22;;;9.87;60.80
53647;BME280;39550;52.230;5.194;2023-05-03T04:08:58;102863.56;;;9.86;60.57
53647;BME280;39550;52.230;5.194;2023-05-03T04:11:23;102782.38;;;9.34;60.85
53647;BME280;39550;52.230;5.194;2023-05-03T04:13:49;102880.63;;;9.84;60.41
53647;BME280;39550;52.230;5.194;2023-05-03T04:16:14;102826.91;;;9.52;60.82
53647;BME280;39550;52.230;5.194;2023-05-03T04:18:39;102824.16;;;9.48;60.60
53647;BME280;39550;52.230;5.194;2023-05-03T04:21:06;102822.25;;;9.44;60.62
53647;BME280;39550;52.230;5.194;2023-05-03T04:23:32;102892.50;;;9.80;60.65
53647;BME280;39550;52.230;5.194;2023-05-03T04:25:57;102857.34;;;9.61;60.37
53647;BME280;39550;52.230;5.194;2023-05-03T04:28:23;102895.09;;;9.80;60.89
53647;BME280;39550;52.230;5.194;2023-05-03T04:30:49;102885.97;;;9.69;60.62
53647;BME280;39550;52.230;5.194;2023-05-03T04:33:15;102832.13;;;9.34;60.07
53647;BME280;39550;52.230;5.194;2023-05-03T04:35:41;102898.13;;;9.71;60.80
53647;BME280;39550;52.230;5.194;2023-05-03T04:38:06;102902.41;;;9.71;60.73
53647;BME280;39550;52.230;5.194;2023-05-03T04:40:33;102888.31;;;9.63;60.48
53647;BME280;39550;52.230;5.194;2023-05-03T04:42:58;102897.91;;;9.67;60.55
53647;BME280;39550;52.230;5.194;2023-05-03T04:45:24;102913.63;;;9.73;60.64
53647;BME280;39550;52.230;5.194;2023-05-03T04:47:50;102841.28;;;9.28;60.31
53647;BME280;39550;52.230;5.194;2023-05-03T04:50:16;102823.78;;;9.20;60.34
53647;BME280;39550;52.230;5.194;2023-05-03T04:52:41;102888.84;;;9.56;60.93
53647;BME280;39550;52.230;5.194;2023-05-03T04:55:07;102916.88;;;9.69;61.09
53647;BME280;39550;52.230;5.194;2023-05-03T04:57:33;102913.38;;;9.67;60.27
53647;BME280;39550;52.230;5.194;2023-05-03T04:59:58;102876.47;;;9.48;61.05
53647;BME280;39550;52.230;5.194;2023-05-03T05:02:24;102834.22;;;9.24;60.98
53647;BME280;39550;52.230;5.194;2023-05-03T05:04:50;102885.03;;;9.47;60.85
53647;BME280;39550;52.230;5.194;2023-05-03T05:07:15;102816.16;;;9.04;60.66
53647;BME280;39550;52.230;5.194;2023-05-03T05:09:41;102860.22;;;9.30;60.23
53647;BME280;39550;52.230;5.194;2023-05-03T05:12:07;102890.19;;;9.47;60.87
53647;BME280;39550;52.230;5.194;2023-05-03T05:14:33;102899.66;;;9.48;60.79
53647;BME280;39550;52.230;5.194;2023-05-03T05:16:58;102867.00;;;9.28;60.02
53647;BME280;39550;52.230;5.194;2023-05-03T05:19:24;102874.94;;;9.32;60.30
53647;BME280;39550;52.230;5.194;2023-05-03T05:21:50;102884.91;;;9.44;60.75
53647;BME280;39550;52.230;5.194;2023-05-03T05:24:15;102901.16;;;9.63;60.14
53647;BME280;39550;52.230;5.194;2023-05-03T05:26:41;102916.50;;;9.79;59.96
53647;BME280;39550;52.230;5.194;2023-05-03T05:29:07;102880.84;;;9.69;59.66
53647;BME280;39550;52.230;5.194;2023-05-03T05:31:32;102908.16;;;9.85;59.67
53647;BME280;39550;52.230;5.194;2023-05-03T05:33:59;102923.13;;;9.94;59.77
53647;BME280;39550;52.230;5.194;2023-05-03T05:36:24;102913.72;;;9.94;59.78
53647;BME280;39550;52.230;5.194;2023-05-03T05:38:50;102913.44;;;9.88;59.63
53647;BME280;39550;52.230;5.194;2023-05-03T05:41:15;102888.31;;;9.63;60.02
53647;BME280;39550;52.230;5.194;2023-05-03T05:43:40;102917.97;;;9.74;60.47
53647;BME280;39550;52.230;5.194;2023-05-03T05:46:06;102844.59;;;9.25;60.41
53647;BME280;39550;52.230;5.194;2023-05-03T05:48:32;102880.75;;;9.48;60.95
53647;BME280;39550;52.230;5.194;2023-05-03T05:50:57;102916.63;;;9.63;60.67
53647;BME280;39550;52.230;5.194;2023-05-03T05:53:23;102923.72;;;9.68;61.02
53647;BME280;39550;52.230;5.194;2023-05-03T05:55:49;102921.91;;;9.66;60.54
53647;BME280;39550;52.230;5.194;2023-05-03T05:58:14;102940.03;;;9.69;61.02
53647;BME280;39550;52.230;5.194;2023-05-03T06:00:39;102946.03;;;9.68;60.49
53647;BME280;39550;52.230;5.194;2023-05-03T06:03:05;102933.84;;;9.64;60.72
53647;BME280;39550;52.230;5.194;2023-05-03T06:05:31;102942.63;;;9.69;60.80
53647;BME280;39550;52.230;5.194;2023-05-03T06:07:56;102883.88;;;9.41;60.34
53647;BME280;39550;52.230;5.194;2023-05-03T06:10:21;102851.06;;;9.17;60.61
53647;BME280;39550;52.230;5.194;2023-05-03T06:12:46;102941.00;;;9.71;61.04
53647;BME280;39550;52.230;5.194;2023-05-03T06:15:12;102941.16;;;9.74;60.69
53647;BME280;39550;52.230;5.194;2023-05-03T06:17:38;102900.63;;;9.50;60.92
53647;BME280;39550;52.230;5.194;2023-05-03T06:20:03;102895.72;;;9.57;60.55
53647;BME280;39550;52.230;5.194;2023-05-03T06:22:29;102877.88;;;9.40;60.94
53647;BME280;39550;52.230;5.194;2023-05-03T06:24:54;102924.41;;;9.64;61.22
53647;BME280;39550;52.230;5.194;2023-05-03T06:27:20;102913.91;;;9.79;60.32
53647;BME280;39550;52.230;5.194;2023-05-03T06:29:46;102928.25;;;10.13;59.21
53647;BME280;39550;52.230;5.194;2023-05-03T06:32:12;102926.78;;;10.18;59.38
53647;BME280;39550;52.230;5.194;2023-05-03T06:34:37;102920.00;;;10.01;60.08
53647;BME280;39550;52.230;5.194;2023-05-03T06:37:03;102921.50;;;9.96;60.25
53647;BME280;39550;52.230;5.194;2023-05-03T06:39:29;102885.97;;;9.69;60.00
53647;BME280;39550;52.230;5.194;2023-05-03T06:41:55;102848.72;;;9.41;60.20
53647;BME280;39550;52.230;5.194;2023-05-03T06:44:20;102927.72;;;9.81;60.43
53647;BME280;39550;52.230;5.194;2023-05-03T06:46:46;102920.28;;;9.68;60.72
53647;BME280;39550;52.230;5.194;2023-05-03T06:49:11;102914.97;;;9.65;60.70
53647;BME280;39550;52.230;5.194;2023-05-03T06:51:36;102899.13;;;9.56;61.37
53647;BME280;39550;52.230;5.194;2023-05-03T06:54:02;102921.91;;;9.66;61.20
53647;BME280;39550;52.230;5.194;2023-05-03T06:56:31;102910.59;;;9.62;61.22
53647;BME280;39550;52.230;5.194;2023-05-03T06:58:58;102905.09;;;9.54;61.71
53647;BME280;39550;52.230;5.194;2023-05-03T07:01:23;102899.28;;;9.59;60.61
53647;BME280;39550;52.230;5.194;2023-05-03T07:03:48;102881.78;;;9.51;60.77
53647;BME280;39550;52.230;5.194;2023-05-03T07:06:14;102810.53;;;9.11;61.25
53647;BME280;39550;52.230;5.194;2023-05-03T07:08:40;102887.06;;;9.54;61.05
53647;BME280;39550;52.230;5.194;2023-05-03T07:11:06;102816.59;;;9.13;61.35
53647;BME280;39550;52.230;5.194;2023-05-03T07:13:31;102901.97;;;9.62;61.78
53647;BME280;39550;52.230;5.194;2023-05-03T07:15:56;102823.50;;;9.14;61.14
53647;BME280;39550;52.230;5.194;2023-05-03T07:18:22;102879.22;;;9.51;60.98
53647;BME280;39550;52.230;5.194;2023-05-03T07:20:47;102881.78;;;9.51;60.76
53647;BME280;39550;52.230;5.194;2023-05-03T07:23:13;102809.97;;;9.18;60.93
53647;BME280;39550;52.230;5.194;2023-05-03T07:25:40;102803.06;;;9.17;60.86
53647;BME280;39550;52.230;5.194;2023-05-03T07:28:06;102848.03;;;9.45;61.02
53647;BME280;39550;52.230;5.194;2023-05-03T07:30:31;102829.53;;;9.34;60.03
53647;BME280;39550;52.230;5.194;2023-05-03T07:32:56;102839.94;;;9.36;60.76
53647;BME280;39550;52.230;5.194;2023-05-03T07:35:22;102875.56;;;9.66;60.91
53647;BME280;39550;52.230;5.194;2023-05-03T07:37:47;102850.63;;;9.45;60.68
53647;BME280;39550;52.230;5.194;2023-05-03T07:40:12;102856.06;;;9.51;60.82
53647;BME280;39550;52.230;5.194;2023-05-03T07:42:41;102856.31;;;9.58;60.43
53647;BME280;39550;52.230;5.194;2023-05-03T07:45:06;102842.28;;;9.51;60.59
53647;BME280;39550;52.230;5.194;2023-05-03T07:47:32;102868.03;;;9.70;59.60
53647;BME280;39550;52.230;5.194;2023-05-03T07:50:01;102807.41;;;9.38;59.88
53647;BME280;39550;52.230;5.194;2023-05-03T07:52:29;102851.47;;;9.64;60.20
53647;BME280;39550;52.230;5.194;2023-05-03T07:54:54;102853.06;;;9.62;60.08
53647;BME280;39550;52.230;5.194;2023-05-03T07:57:19;102861.88;;;9.67;59.59
53647;BME280;39550;52.230;5.194;2023-05-03T07:59:47;102848.94;;;9.65;59.86
53647;BME280;39550;52.230;5.194;2023-05-03T08:02:12;102795.22;;;9.34;60.19
53647;BME280;39550;52.230;5.194;2023-05-03T08:04:37;102859.50;;;9.71;59.76
53647;BME280;39550;52.230;5.194;2023-05-03T08:07:03;102868.31;;;9.77;60.08
53647;BME280;39550;52.230;5.194;2023-05-03T08:09:28;102866.53;;;9.76;59.30
53647;BME280;39550;52.230;5.194;2023-05-03T08:11:54;102830.56;;;9.58;59.46
53647;BME280;39550;52.230;5.194;2023-05-03T08:14:20;102809.94;;;9.56;59.16
53647;BME280;39550;52.230;5.194;2023-05-03T08:16:46;102845.16;;;9.77;59.79
53647;BME280;39550;52.230;5.194;2023-05-03T08:19:11;102847.97;;;9.83;59.79
53647;BME280;39550;52.230;5.194;2023-05-03T08:21:36;102799.69;;;9.58;59.43
53647;BME280;39550;52.230;5.194;2023-05-03T08:24:02;102833.13;;;9.77;60.12
53647;BME280;39550;52.230;5.194;2023-05-03T08:26:30;102821.91;;;9.75;59.43
53647;BME280;39550;52.230;5.194;2023-05-03T08:28:55;102816.88;;;9.78;59.49
53647;BME280;39550;52.230;5.194;2023-05-03T08:31:20;102836.91;;;9.85;59.41
53647;BME280;39550;52.230;5.194;2023-05-03T08:33:46;102799.69;;;9.58;59.42
53647;BME280;39550;52.230;5.194;2023-05-03T08:36:11;102834.84;;;9.77;59.06
53647;BME280;39550;52.230;5.194;2023-05-03T08:38:36;102778.56;;;9.45;59.60
53647;BME280;39550;52.230;5.194;2023-05-03T08:41:13;102859.69;;;9.96;59.41
53647;BME280;39550;52.230;5.194;2023-05-03T08:43:43;102850.88;;;9.91;59.36
53647;BME280;39550;52.230;5.194;2023-05-03T08:46:10;102850.88;;;9.91;59.06
53647;BME280;39550;52.230;5.194;2023-05-03T08:48:36;102857.94;;;9.95;58.76
53647;BME280;39550;52.230;5.194;2023-05-03T08:51:03;102857.94;;;9.95;59.06
53647;BME280;39550;52.230;5.194;2023-05-03T08:53:29;102872.03;;;10.03;59.70
53647;BME280;39550;52.230;5.194;2023-05-03T08:55:54;102858.88;;;9.97;59.02
53647;BME280;39550;52.230;5.194;2023-05-03T08:58:20;102867.00;;;10.06;59.31
53647;BME280;39550;52.230;5.194;2023-05-03T09:00:45;102867.00;;;10.06;58.96
53647;BME280;39550;52.230;5.194;2023-05-03T09:03:11;102782.75;;;9.63;59.30
53647;BME280;39550;52.230;5.194;2023-05-03T09:05:36;102855.06;;;10.08;58.82
53647;BME280;39550;52.230;5.194;2023-05-03T09:10:32;102857.31;;;10.00;59.94
53647;BME280;39550;52.230;5.194;2023-05-03T09:13:00;102853.81;;;9.98;59.72
53647;BME280;39550;52.230;5.194;2023-05-03T09:15:29;102847.75;;;9.98;59.04
53647;BME280;39550;52.230;5.194;2023-05-03T09:18:11;102867.50;;;10.18;59.37
53647;BME280;39550;52.230;5.194;2023-05-03T09:20:39;102858.59;;;10.10;59.22
53647;BME280;39550;52.230;5.194;2023-05-03T09:23:08;102844.78;;;10.08;59.35
53647;BME280;39550;52.230;5.194;2023-05-03T09:25:45;102867.00;;;10.27;59.05
53647;BME280;39550;52.230;5.194;2023-05-03T09:28:12;102866.88;;;10.24;58.93
53647;BME280;39550;52.230;5.194;2023-05-03T09:30:37;102857.47;;;10.25;59.46
53647;BME280;39550;52.230;5.194;2023-05-03T09:33:03;102831.06;;;10.09;59.29
53647;BME280;39550;52.230;5.194;2023-05-03T09:35:29;102834.59;;;10.11;58.44
53647;BME280;39550;52.230;5.194;2023-05-03T09:37:56;102862.88;;;10.31;57.75
53647;BME280;39550;52.230;5.194;2023-05-03T09:40:21;102847.97;;;10.23;58.39
53647;BME280;39550;52.230;5.194;2023-05-03T09:43:06;102857.66;;;10.29;58.82
53647;BME280;39550;52.230;5.194;2023-05-03T09:45:33;102864.66;;;10.32;58.10
53647;BME280;39550;52.230;5.194;2023-05-03T09:48:01;102852.69;;;10.34;58.95
53647;BME280;39550;52.230;5.194;2023-05-03T09:50:26;102835.09;;;10.23;58.91
53647;BME280;39550;52.230;5.194;2023-05-03T09:52:52;102865.03;;;10.41;58.73
53647;BME280;39550;52.230;5.194;2023-05-03T09:55:20;102858.16;;;10.40;58.94
53647;BME280;39550;52.230;5.194;2023-05-03T09:57:46;102849.44;;;10.38;58.77
53647;BME280;39550;52.230;5.194;2023-05-03T10:00:12;102755.53;;;9.89;58.66
53647;BME280;39550;52.230;5.194;2023-05-03T10:02:39;102841.03;;;10.42;58.21
53647;BME280;39550;52.230;5.194;2023-05-03T10:05:09;102834.25;;;10.44;58.39
53647;BME280;39550;52.230;5.194;2023-05-03T10:07:38;102827.34;;;10.43;58.65
53647;BME280;39550;52.230;5.194;2023-05-03T10:10:05;102788.84;;;10.27;58.91
53647;BME280;39550;52.230;5.194;2023-05-03T10:12:32;102821.66;;;10.52;58.64
53647;BME280;39550;52.230;5.194;2023-05-03T10:15:02;102825.25;;;10.55;58.37
53647;BME280;39550;52.230;5.194;2023-05-03T10:17:31;102829.34;;;10.50;59.13
53647;BME280;39550;52.230;5.194;2023-05-03T10:25:35;102828.06;;;10.62;58.80
53647;BME280;39550;52.230;5.194;2023-05-03T10:28:03;102820.16;;;10.57;58.74
53647;BME280;39550;52.230;5.194;2023-05-03T10:30:32;102836.97;;;10.70;58.35
53647;BME280;39550;52.230;5.194;2023-05-03T10:35:41;102826.38;;;10.62;58.45
53647;BME280;39550;52.230;5.194;2023-05-03T10:38:15;102830.19;;;10.72;57.95
53647;BME280;39550;52.230;5.194;2023-05-03T10:40:41;102825.16;;;10.75;58.36
53647;BME280;39550;52.230;5.194;2023-05-03T10:46:03;102830.41;;;10.78;58.59
53647;BME280;39550;52.230;5.194;2023-05-03T10:48:29;102742.56;;;10.30;58.74
53647;BME280;39550;52.230;5.194;2023-05-03T10:50:56;102804.41;;;10.72;58.56
53647;BME280;39550;52.230;5.194;2023-05-03T10:56:02;102821.34;;;10.88;58.41
53647;BME280;39550;52.230;5.194;2023-05-03T10:58:36;102776.81;;;10.69;58.39
53647;BME280;39550;52.230;5.194;2023-05-03T11:01:03;102811.91;;;10.88;58.45
53647;BME280;39550;52.230;5.194;2023-05-03T11:06:09;102775.44;;;10.79;58.05
53647;BME280;39550;52.230;5.194;2023-05-03T11:08:35;102784.34;;;10.87;58.67
53647;BME280;39550;52.230;5.194;2023-05-03T11:11:03;102769.47;;;10.80;58.50
53647;BME280;39550;52.230;5.194;2023-05-03T11:13:34;102776.03;;;10.95;58.54
53647;BME280;39550;52.230;5.194;2023-05-03T11:16:01;102791.91;;;11.05;58.82
53647;BME280;39550;52.230;5.194;2023-05-03T11:18:27;102791.97;;;11.07;58.26
53647;BME280;39550;52.230;5.194;2023-05-03T11:20:52;102700.81;;;10.60;58.51
53647;BME280;39550;52.230;5.194;2023-05-03T11:23:18;102751.75;;;10.89;58.54
53647;BME280;39550;52.230;5.194;2023-05-03T11:25:43;102765.94;;;11.01;58.34
53647;BME280;39550;52.230;5.194;2023-05-03T11:28:09;102781.66;;;11.07;58.68
53647;BME280;39550;52.230;5.194;2023-05-03T11:30:34;102683.41;;;10.54;58.37
53647;BME280;39550;52.230;5.194;2023-05-03T11:33:01;102760.66;;;10.98;58.42
53647;BME280;39550;52.230;5.194;2023-05-03T11:35:30;102741.69;;;10.96;58.51
53647;BME280;39550;52.230;5.194;2023-05-03T11:37:57;102769.00;;;11.13;58.47
53647;BME280;39550;52.230;5.194;2023-05-03T11:40:22;102765.63;;;11.16;58.69
53647;BME280;39550;52.230;5.194;2023-05-03T11:42:55;102750.94;;;11.13;58.99
53647;BME280;39550;52.230;5.194;2023-05-03T11:45:24;102761.66;;;11.25;58.82
53647;BME280;39550;52.230;5.194;2023-05-03T11:47:50;102722.25;;;11.05;58.58
53647;BME280;39550;52.230;5.194;2023-05-03T11:50:17;102775.84;;;11.37;58.52
53647;BME280;39550;52.230;5.194;2023-05-03T11:52:43;102778.53;;;11.40;58.28
53647;BME280;39550;52.230;5.194;2023-05-03T11:55:10;102770.91;;;11.43;58.53
53647;BME280;39550;52.230;5.194;2023-05-03T11:57:36;102766.78;;;11.48;57.53
53647;BME280;39550;52.230;5.194;2023-05-03T12:00:10;102738.94;;;11.39;58.23
53647;BME280;39550;52.230;5.194;2023-05-03T12:02:39;102762.00;;;11.59;57.83
53647;BME280;39550;52.230;5.194;2023-05-03T12:05:05;102714.25;;;11.48;57.89
53647;BME280;39550;52.230;5.194;2023-05-03T12:07:31;102733.94;;;11.70;56.20
53647;BME280;39550;52.230;5.194;2023-05-03T12:09:57;102742.78;;;11.76;57.10
53647;BME280;39550;52.230;5.194;2023-05-03T12:12:22;102701.84;;;11.62;57.53
53647;BME280;39550;52.230;5.194;2023-05-03T12:14:58;102739.63;;;11.85;56.50
53647;BME280;39550;52.230;5.194;2023-05-03T12:17:35;102713.50;;;11.76;56.92
53647;BME280;39550;52.230;5.194;2023-05-03T12:20:20;102710.28;;;11.83;56.99
53647;BME280;39550;52.230;5.194;2023-05-03T12:22:54;102707.31;;;11.97;57.08
53647;BME280;39550;52.230;5.194;2023-05-03T12:25:20;102699.75;;;12.03;56.64
53647;BME280;39550;52.230;5.194;2023-05-03T12:27:47;102686.94;;;12.06;56.29
53647;BME280;39550;52.230;5.194;2023-05-03T12:30:13;102717.75;;;12.27;56.86
53647;BME280;39550;52.230;5.194;2023-05-03T12:32:38;102712.78;;;12.35;55.72
53647;BME280;39550;52.230;5.194;2023-05-03T12:35:04;102699.84;;;12.35;56.18
53647;BME280;39550;52.230;5.194;2023-05-03T12:37:30;102701.69;;;12.39;54.81
53647;BME280;39550;52.230;5.194;2023-05-03T12:39:56;102707.16;;;12.48;55.14
53647;BME280;39550;52.230;5.194;2023-05-03T12:42:21;102681.13;;;12.42;55.17
53647;BME280;39550;52.230;5.194;2023-05-03T12:44:46;102676.13;;;12.48;55.16
53647;BME280;39550;52.230;5.194;2023-05-03T12:47:12;102685.06;;;12.59;54.34
53647;BME280;39550;52.230;5.194;2023-05-03T12:49:37;102699.44;;;12.78;55.84
53647;BME280;39550;52.230;5.194;2023-05-03T12:52:03;102656.22;;;12.76;55.12
53647;BME280;39550;52.230;5.194;2023-05-03T12:54:28;102687.53;;;12.85;54.82
53647;BME280;39550;52.230;5.194;2023-05-03T12:56:54;102685.25;;;12.96;54.66
53647;BME280;39550;52.230;5.194;2023-05-03T12:59:19;102639.78;;;12.72;53.23
53647;BME280;39550;52.230;5.194;2023-05-03T13:01:45;102669.03;;;13.02;53.64
53647;BME280;39550;52.230;5.194;2023-05-03T13:04:10;102642.97;;;12.95;53.83
53647;BME280;39550;52.230;5.194;2023-05-03T13:06:36;102646.81;;;13.10;53.60
53647;BME280;39550;52.230;5.194;2023-05-03T13:09:03;102603.31;;;12.97;53.56
53647;BME280;39550;52.230;5.194;2023-05-03T13:11:30;102598.97;;;12.95;53.92
53647;BME280;39550;52.230;5.194;2023-05-03T13:13:55;102612.63;;;12.90;53.67
53647;BME280;39550;52.230;5.194;2023-05-03T13:16:20;102625.59;;;13.25;52.92
53647;BME280;39550;52.230;5.194;2023-05-03T13:18:46;102644.28;;;13.45;53.65
53647;BME280;39550;52.230;5.194;2023-05-03T13:21:12;102637.28;;;13.41;52.14
53647;BME280;39550;52.230;5.194;2023-05-03T13:23:37;102612.97;;;13.36;52.78